<?xml version="1.0" encoding="UTF-8" standalone="no" ?>
<gpx xmlns="http://www.topografix.com/GPX/1/1" xmlns:xsi="http://www.w3.org/2001/XMLSchema-instance" xsi:schemaLocation="http://www.topografix.com/GPX/1/1 http://www.topografix.com/GPX/1/1/gpx.xsd" version="1.1" creator="VisuGPX - https://www.visugpx.com">
  <metadata>
    <name>Randonnée du 04/07/2022 à 09:47</name>
    <desc><![CDATA[le chemin des aurières au Chalard. 5 km très agréables.]]></desc>
  </metadata>
  <trk>
    <name><![CDATA[Randonnée du 04/07/2022 à 09:47]]></name>
    <extensions>
      <line xmlns="http://www.topografix.com/GPX/gpx_style/0/2">
        <color>0000FF</color>
        <width>4</width>
      </line>
    </extensions>
    <trkseg>
      <trkpt lat="45.54936" lon="1.13042">
        <ele>385</ele>
        <time>2022-07-04T09:49:30+02:00</time>
      </trkpt>
      <trkpt lat="45.54916" lon="1.13056">
        <ele>385</ele>
        <time>2022-07-04T09:51:16+02:00</time>
      </trkpt>
      <trkpt lat="45.54904" lon="1.13027">
        <ele>383</ele>
        <time>2022-07-04T09:51:52+02:00</time>
      </trkpt>
      <trkpt lat="45.54893" lon="1.12998">
        <ele>383</ele>
        <time>2022-07-04T09:52:15+02:00</time>
      </trkpt>
      <trkpt lat="45.54879" lon="1.12972">
        <ele>383</ele>
        <time>2022-07-04T09:52:42+02:00</time>
      </trkpt>
      <trkpt lat="45.5488" lon="1.1294">
        <ele>382</ele>
        <time>2022-07-04T09:53:43+02:00</time>
      </trkpt>
      <trkpt lat="45.54868" lon="1.12912">
        <ele>385</ele>
        <time>2022-07-04T09:54:26+02:00</time>
      </trkpt>
      <trkpt lat="45.54857" lon="1.12884">
        <ele>380</ele>
        <time>2022-07-04T09:55:26+02:00</time>
      </trkpt>
      <trkpt lat="45.54844" lon="1.12857">
        <ele>378</ele>
        <time>2022-07-04T09:55:41+02:00</time>
      </trkpt>
      <trkpt lat="45.54825" lon="1.12839">
        <ele>376</ele>
        <time>2022-07-04T09:55:58+02:00</time>
      </trkpt>
      <trkpt lat="45.54811" lon="1.12814">
        <ele>379</ele>
        <time>2022-07-04T09:57:36+02:00</time>
      </trkpt>
      <trkpt lat="45.54829" lon="1.12793">
        <ele>376</ele>
        <time>2022-07-04T10:00:41+02:00</time>
      </trkpt>
      <trkpt lat="45.5485" lon="1.12773">
        <ele>372</ele>
        <time>2022-07-04T10:01:14+02:00</time>
      </trkpt>
      <trkpt lat="45.5487" lon="1.12757">
        <ele>376</ele>
        <time>2022-07-04T10:01:29+02:00</time>
      </trkpt>
      <trkpt lat="45.54889" lon="1.12736">
        <ele>374</ele>
        <time>2022-07-04T10:01:52+02:00</time>
      </trkpt>
      <trkpt lat="45.54909" lon="1.12719">
        <ele>370</ele>
        <time>2022-07-04T10:02:11+02:00</time>
      </trkpt>
      <trkpt lat="45.54927" lon="1.12698">
        <ele>367</ele>
        <time>2022-07-04T10:02:29+02:00</time>
      </trkpt>
      <trkpt lat="45.54936" lon="1.12668">
        <ele>366</ele>
        <time>2022-07-04T10:03:38+02:00</time>
      </trkpt>
      <trkpt lat="45.54945" lon="1.12638">
        <ele>370</ele>
        <time>2022-07-04T10:04:16+02:00</time>
      </trkpt>
      <trkpt lat="45.54964" lon="1.12618">
        <ele>367</ele>
        <time>2022-07-04T10:04:41+02:00</time>
      </trkpt>
      <trkpt lat="45.54974" lon="1.12589">
        <ele>369</ele>
        <time>2022-07-04T10:05:02+02:00</time>
      </trkpt>
      <trkpt lat="45.54985" lon="1.1256">
        <ele>366</ele>
        <time>2022-07-04T10:05:30+02:00</time>
      </trkpt>
      <trkpt lat="45.54992" lon="1.12529">
        <ele>372</ele>
        <time>2022-07-04T10:07:18+02:00</time>
      </trkpt>
      <trkpt lat="45.55007" lon="1.12502">
        <ele>374</ele>
        <time>2022-07-04T10:07:33+02:00</time>
      </trkpt>
      <trkpt lat="45.55019" lon="1.12474">
        <ele>372</ele>
        <time>2022-07-04T10:07:53+02:00</time>
      </trkpt>
      <trkpt lat="45.55035" lon="1.12451">
        <ele>376</ele>
        <time>2022-07-04T10:08:10+02:00</time>
      </trkpt>
      <trkpt lat="45.55046" lon="1.12422">
        <ele>379</ele>
        <time>2022-07-04T10:08:27+02:00</time>
      </trkpt>
      <trkpt lat="45.55051" lon="1.12358">
        <ele>378</ele>
        <time>2022-07-04T10:09:02+02:00</time>
      </trkpt>
      <trkpt lat="45.55053" lon="1.12325">
        <ele>376</ele>
        <time>2022-07-04T10:09:20+02:00</time>
      </trkpt>
      <trkpt lat="45.55055" lon="1.12292">
        <ele>371</ele>
        <time>2022-07-04T10:09:35+02:00</time>
      </trkpt>
      <trkpt lat="45.55055" lon="1.12259">
        <ele>374</ele>
        <time>2022-07-04T10:09:56+02:00</time>
      </trkpt>
      <trkpt lat="45.55057" lon="1.12227">
        <ele>378</ele>
        <time>2022-07-04T10:10:17+02:00</time>
      </trkpt>
      <trkpt lat="45.5506" lon="1.12194">
        <ele>377</ele>
        <time>2022-07-04T10:10:37+02:00</time>
      </trkpt>
      <trkpt lat="45.55071" lon="1.12166">
        <ele>375</ele>
        <time>2022-07-04T10:10:55+02:00</time>
      </trkpt>
      <trkpt lat="45.55073" lon="1.12133">
        <ele>374</ele>
        <time>2022-07-04T10:11:17+02:00</time>
      </trkpt>
      <trkpt lat="45.55078" lon="1.12101">
        <ele>372</ele>
        <time>2022-07-04T10:11:40+02:00</time>
      </trkpt>
      <trkpt lat="45.55088" lon="1.12069">
        <ele>375</ele>
        <time>2022-07-04T10:12:03+02:00</time>
      </trkpt>
      <trkpt lat="45.55096" lon="1.12037">
        <ele>371</ele>
        <time>2022-07-04T10:12:23+02:00</time>
      </trkpt>
      <trkpt lat="45.55106" lon="1.12008">
        <ele>372</ele>
        <time>2022-07-04T10:12:49+02:00</time>
      </trkpt>
      <trkpt lat="45.55116" lon="1.11979">
        <ele>373</ele>
        <time>2022-07-04T10:13:08+02:00</time>
      </trkpt>
      <trkpt lat="45.55131" lon="1.11954">
        <ele>377</ele>
        <time>2022-07-04T10:13:33+02:00</time>
      </trkpt>
      <trkpt lat="45.55142" lon="1.11926">
        <ele>380</ele>
        <time>2022-07-04T10:13:56+02:00</time>
      </trkpt>
      <trkpt lat="45.55153" lon="1.11897">
        <ele>385</ele>
        <time>2022-07-04T10:14:16+02:00</time>
      </trkpt>
      <trkpt lat="45.55167" lon="1.1187">
        <ele>382</ele>
        <time>2022-07-04T10:14:39+02:00</time>
      </trkpt>
      <trkpt lat="45.55207" lon="1.11852">
        <ele>381</ele>
        <time>2022-07-04T10:15:46+02:00</time>
      </trkpt>
      <trkpt lat="45.55223" lon="1.11828">
        <ele>367</ele>
        <time>2022-07-04T10:16:06+02:00</time>
      </trkpt>
      <trkpt lat="45.55244" lon="1.11813">
        <ele>367</ele>
        <time>2022-07-04T10:17:23+02:00</time>
      </trkpt>
      <trkpt lat="45.55266" lon="1.118">
        <ele>372</ele>
        <time>2022-07-04T10:17:29+02:00</time>
      </trkpt>
      <trkpt lat="45.55286" lon="1.11784">
        <ele>371</ele>
        <time>2022-07-04T10:18:16+02:00</time>
      </trkpt>
      <trkpt lat="45.55303" lon="1.11763">
        <ele>375</ele>
        <time>2022-07-04T10:18:32+02:00</time>
      </trkpt>
      <trkpt lat="45.55325" lon="1.11757">
        <ele>385</ele>
        <time>2022-07-04T10:19:03+02:00</time>
      </trkpt>
      <trkpt lat="45.55333" lon="1.11725">
        <ele>394</ele>
        <time>2022-07-04T10:20:25+02:00</time>
      </trkpt>
      <trkpt lat="45.55347" lon="1.11701">
        <ele>389</ele>
        <time>2022-07-04T10:20:49+02:00</time>
      </trkpt>
      <trkpt lat="45.55361" lon="1.11673">
        <ele>389</ele>
        <time>2022-07-04T10:21:18+02:00</time>
      </trkpt>
      <trkpt lat="45.55374" lon="1.11646">
        <ele>389</ele>
        <time>2022-07-04T10:21:52+02:00</time>
      </trkpt>
      <trkpt lat="45.55388" lon="1.11621">
        <ele>389</ele>
        <time>2022-07-04T10:22:17+02:00</time>
      </trkpt>
      <trkpt lat="45.55398" lon="1.11591">
        <ele>393</ele>
        <time>2022-07-04T10:22:50+02:00</time>
      </trkpt>
      <trkpt lat="45.55412" lon="1.11565">
        <ele>389</ele>
        <time>2022-07-04T10:23:11+02:00</time>
      </trkpt>
      <trkpt lat="45.55425" lon="1.11537">
        <ele>387</ele>
        <time>2022-07-04T10:23:45+02:00</time>
      </trkpt>
      <trkpt lat="45.55447" lon="1.11527">
        <ele>386</ele>
        <time>2022-07-04T10:24:12+02:00</time>
      </trkpt>
      <trkpt lat="45.55469" lon="1.11519">
        <ele>383</ele>
        <time>2022-07-04T10:24:53+02:00</time>
      </trkpt>
      <trkpt lat="45.55488" lon="1.11499">
        <ele>382</ele>
        <time>2022-07-04T10:25:25+02:00</time>
      </trkpt>
      <trkpt lat="45.55493" lon="1.11467">
        <ele>379</ele>
        <time>2022-07-04T10:25:43+02:00</time>
      </trkpt>
      <trkpt lat="45.55506" lon="1.11441">
        <ele>376</ele>
        <time>2022-07-04T10:26:10+02:00</time>
      </trkpt>
      <trkpt lat="45.5552" lon="1.11414">
        <ele>376</ele>
        <time>2022-07-04T10:26:38+02:00</time>
      </trkpt>
      <trkpt lat="45.55536" lon="1.11392">
        <ele>379</ele>
        <time>2022-07-04T10:27:16+02:00</time>
      </trkpt>
      <trkpt lat="45.55525" lon="1.11363">
        <ele>375</ele>
        <time>2022-07-04T10:28:25+02:00</time>
      </trkpt>
      <trkpt lat="45.55544" lon="1.11342">
        <ele>377</ele>
        <time>2022-07-04T10:28:45+02:00</time>
      </trkpt>
      <trkpt lat="45.55562" lon="1.11321">
        <ele>380</ele>
        <time>2022-07-04T10:29:40+02:00</time>
      </trkpt>
      <trkpt lat="45.5558" lon="1.11301">
        <ele>382</ele>
        <time>2022-07-04T10:30:24+02:00</time>
      </trkpt>
      <trkpt lat="45.55597" lon="1.11278">
        <ele>388</ele>
        <time>2022-07-04T10:30:48+02:00</time>
      </trkpt>
      <trkpt lat="45.55615" lon="1.1126">
        <ele>397</ele>
        <time>2022-07-04T10:31:16+02:00</time>
      </trkpt>
      <trkpt lat="45.55618" lon="1.11228">
        <ele>395</ele>
        <time>2022-07-04T10:31:36+02:00</time>
      </trkpt>
      <trkpt lat="45.55634" lon="1.11203">
        <ele>398</ele>
        <time>2022-07-04T10:32:00+02:00</time>
      </trkpt>
      <trkpt lat="45.55644" lon="1.11174">
        <ele>394</ele>
        <time>2022-07-04T10:32:40+02:00</time>
      </trkpt>
      <trkpt lat="45.55671" lon="1.11123">
        <ele>392</ele>
        <time>2022-07-04T10:33:35+02:00</time>
      </trkpt>
      <trkpt lat="45.55685" lon="1.11097">
        <ele>395</ele>
        <time>2022-07-04T10:34:29+02:00</time>
      </trkpt>
      <trkpt lat="45.55721" lon="1.11091">
        <ele>392</ele>
        <time>2022-07-04T10:39:50+02:00</time>
      </trkpt>
      <trkpt lat="45.55731" lon="1.1112">
        <ele>392</ele>
        <time>2022-07-04T10:40:17+02:00</time>
      </trkpt>
      <trkpt lat="45.55741" lon="1.11152">
        <ele>390</ele>
        <time>2022-07-04T10:41:02+02:00</time>
      </trkpt>
      <trkpt lat="45.55756" lon="1.11176">
        <ele>376</ele>
        <time>2022-07-04T10:41:17+02:00</time>
      </trkpt>
      <trkpt lat="45.55768" lon="1.11203">
        <ele>385</ele>
        <time>2022-07-04T10:41:50+02:00</time>
      </trkpt>
      <trkpt lat="45.5578" lon="1.11231">
        <ele>386</ele>
        <time>2022-07-04T10:42:39+02:00</time>
      </trkpt>
      <trkpt lat="45.55802" lon="1.11245">
        <ele>394</ele>
        <time>2022-07-04T10:42:50+02:00</time>
      </trkpt>
      <trkpt lat="45.55818" lon="1.11269">
        <ele>385</ele>
        <time>2022-07-04T10:43:10+02:00</time>
      </trkpt>
      <trkpt lat="45.55831" lon="1.11297">
        <ele>385</ele>
        <time>2022-07-04T10:43:42+02:00</time>
      </trkpt>
      <trkpt lat="45.55832" lon="1.11331">
        <ele>384</ele>
        <time>2022-07-04T10:44:02+02:00</time>
      </trkpt>
      <trkpt lat="45.55839" lon="1.11364">
        <ele>378</ele>
        <time>2022-07-04T10:44:30+02:00</time>
      </trkpt>
      <trkpt lat="45.55845" lon="1.11395">
        <ele>383</ele>
        <time>2022-07-04T10:45:28+02:00</time>
      </trkpt>
      <trkpt lat="45.55858" lon="1.11423">
        <ele>384</ele>
        <time>2022-07-04T10:45:39+02:00</time>
      </trkpt>
      <trkpt lat="45.55872" lon="1.11448">
        <ele>381</ele>
        <time>2022-07-04T10:46:05+02:00</time>
      </trkpt>
      <trkpt lat="45.55886" lon="1.11474">
        <ele>386</ele>
        <time>2022-07-04T10:46:22+02:00</time>
      </trkpt>
      <trkpt lat="45.55905" lon="1.11493">
        <ele>389</ele>
        <time>2022-07-04T10:46:38+02:00</time>
      </trkpt>
      <trkpt lat="45.5592" lon="1.11519">
        <ele>382</ele>
        <time>2022-07-04T10:47:22+02:00</time>
      </trkpt>
      <trkpt lat="45.55917" lon="1.11552">
        <ele>384</ele>
        <time>2022-07-04T10:47:55+02:00</time>
      </trkpt>
      <trkpt lat="45.55924" lon="1.11584">
        <ele>383</ele>
        <time>2022-07-04T10:48:19+02:00</time>
      </trkpt>
      <trkpt lat="45.55933" lon="1.11613">
        <ele>382</ele>
        <time>2022-07-04T10:48:47+02:00</time>
      </trkpt>
      <trkpt lat="45.55951" lon="1.11588">
        <ele>385</ele>
        <time>2022-07-04T10:50:06+02:00</time>
      </trkpt>
      <trkpt lat="45.55934" lon="1.11611">
        <ele>376</ele>
        <time>2022-07-04T10:51:17+02:00</time>
      </trkpt>
      <trkpt lat="45.55932" lon="1.11644">
        <ele>378</ele>
        <time>2022-07-04T10:51:35+02:00</time>
      </trkpt>
      <trkpt lat="45.55938" lon="1.11677">
        <ele>380</ele>
        <time>2022-07-04T10:52:07+02:00</time>
      </trkpt>
      <trkpt lat="45.55935" lon="1.11709">
        <ele>382</ele>
        <time>2022-07-04T10:52:30+02:00</time>
      </trkpt>
      <trkpt lat="45.55933" lon="1.11741">
        <ele>383</ele>
        <time>2022-07-04T10:52:43+02:00</time>
      </trkpt>
      <trkpt lat="45.55933" lon="1.11776">
        <ele>387</ele>
        <time>2022-07-04T10:53:53+02:00</time>
      </trkpt>
      <trkpt lat="45.55939" lon="1.11809">
        <ele>383</ele>
        <time>2022-07-04T10:54:07+02:00</time>
      </trkpt>
      <trkpt lat="45.55937" lon="1.11842">
        <ele>382</ele>
        <time>2022-07-04T10:54:33+02:00</time>
      </trkpt>
      <trkpt lat="45.55928" lon="1.11872">
        <ele>393</ele>
        <time>2022-07-04T10:54:52+02:00</time>
      </trkpt>
      <trkpt lat="45.55936" lon="1.11905">
        <ele>391</ele>
        <time>2022-07-04T10:55:28+02:00</time>
      </trkpt>
      <trkpt lat="45.55942" lon="1.11937">
        <ele>384</ele>
        <time>2022-07-04T10:55:52+02:00</time>
      </trkpt>
      <trkpt lat="45.55943" lon="1.1197">
        <ele>384</ele>
        <time>2022-07-04T10:56:24+02:00</time>
      </trkpt>
      <trkpt lat="45.55948" lon="1.12002">
        <ele>387</ele>
        <time>2022-07-04T10:56:59+02:00</time>
      </trkpt>
      <trkpt lat="45.55952" lon="1.12036">
        <ele>386</ele>
        <time>2022-07-04T10:57:19+02:00</time>
      </trkpt>
      <trkpt lat="45.55954" lon="1.12069">
        <ele>393</ele>
        <time>2022-07-04T10:57:35+02:00</time>
      </trkpt>
      <trkpt lat="45.55956" lon="1.12101">
        <ele>394</ele>
        <time>2022-07-04T10:58:01+02:00</time>
      </trkpt>
      <trkpt lat="45.55956" lon="1.12133">
        <ele>392</ele>
        <time>2022-07-04T10:58:25+02:00</time>
      </trkpt>
      <trkpt lat="45.55963" lon="1.12165">
        <ele>391</ele>
        <time>2022-07-04T10:58:48+02:00</time>
      </trkpt>
      <trkpt lat="45.55953" lon="1.12226">
        <ele>396</ele>
        <time>2022-07-04T11:01:16+02:00</time>
      </trkpt>
      <trkpt lat="45.55936" lon="1.12249">
        <ele>391</ele>
        <time>2022-07-04T11:01:43+02:00</time>
      </trkpt>
      <trkpt lat="45.55917" lon="1.12268">
        <ele>391</ele>
        <time>2022-07-04T11:02:06+02:00</time>
      </trkpt>
      <trkpt lat="45.55898" lon="1.12287">
        <ele>391</ele>
        <time>2022-07-04T11:02:35+02:00</time>
      </trkpt>
      <trkpt lat="45.55875" lon="1.12289">
        <ele>393</ele>
        <time>2022-07-04T11:03:01+02:00</time>
      </trkpt>
      <trkpt lat="45.55853" lon="1.12285">
        <ele>401</ele>
        <time>2022-07-04T11:03:40+02:00</time>
      </trkpt>
      <trkpt lat="45.55829" lon="1.12283">
        <ele>396</ele>
        <time>2022-07-04T11:04:04+02:00</time>
      </trkpt>
      <trkpt lat="45.55807" lon="1.12277">
        <ele>392</ele>
        <time>2022-07-04T11:04:35+02:00</time>
      </trkpt>
      <trkpt lat="45.55784" lon="1.12281">
        <ele>394</ele>
        <time>2022-07-04T11:04:56+02:00</time>
      </trkpt>
      <trkpt lat="45.55762" lon="1.12271">
        <ele>393</ele>
        <time>2022-07-04T11:05:16+02:00</time>
      </trkpt>
      <trkpt lat="45.55739" lon="1.12272">
        <ele>398</ele>
        <time>2022-07-04T11:05:41+02:00</time>
      </trkpt>
      <trkpt lat="45.55718" lon="1.12286">
        <ele>395</ele>
        <time>2022-07-04T11:06:22+02:00</time>
      </trkpt>
      <trkpt lat="45.55697" lon="1.12297">
        <ele>384</ele>
        <time>2022-07-04T11:06:48+02:00</time>
      </trkpt>
      <trkpt lat="45.55674" lon="1.12296">
        <ele>393</ele>
        <time>2022-07-04T11:07:14+02:00</time>
      </trkpt>
      <trkpt lat="45.55656" lon="1.12318">
        <ele>392</ele>
        <time>2022-07-04T11:07:39+02:00</time>
      </trkpt>
      <trkpt lat="45.55635" lon="1.12329">
        <ele>403</ele>
        <time>2022-07-04T11:08:03+02:00</time>
      </trkpt>
      <trkpt lat="45.55613" lon="1.12338">
        <ele>394</ele>
        <time>2022-07-04T11:08:26+02:00</time>
      </trkpt>
      <trkpt lat="45.55594" lon="1.12357">
        <ele>399</ele>
        <time>2022-07-04T11:08:54+02:00</time>
      </trkpt>
      <trkpt lat="45.55574" lon="1.12372">
        <ele>395</ele>
        <time>2022-07-04T11:09:23+02:00</time>
      </trkpt>
      <trkpt lat="45.55553" lon="1.12384">
        <ele>397</ele>
        <time>2022-07-04T11:09:56+02:00</time>
      </trkpt>
      <trkpt lat="45.55531" lon="1.12392">
        <ele>396</ele>
        <time>2022-07-04T11:10:21+02:00</time>
      </trkpt>
      <trkpt lat="45.55509" lon="1.12405">
        <ele>392</ele>
        <time>2022-07-04T11:10:46+02:00</time>
      </trkpt>
      <trkpt lat="45.55487" lon="1.12411">
        <ele>390</ele>
        <time>2022-07-04T11:11:09+02:00</time>
      </trkpt>
      <trkpt lat="45.55468" lon="1.12429">
        <ele>391</ele>
        <time>2022-07-04T11:11:35+02:00</time>
      </trkpt>
      <trkpt lat="45.55446" lon="1.12436">
        <ele>387</ele>
        <time>2022-07-04T11:11:54+02:00</time>
      </trkpt>
      <trkpt lat="45.55428" lon="1.12456">
        <ele>383</ele>
        <time>2022-07-04T11:12:27+02:00</time>
      </trkpt>
      <trkpt lat="45.55407" lon="1.12471">
        <ele>381</ele>
        <time>2022-07-04T11:12:57+02:00</time>
      </trkpt>
      <trkpt lat="45.55385" lon="1.12474">
        <ele>383</ele>
        <time>2022-07-04T11:13:22+02:00</time>
      </trkpt>
      <trkpt lat="45.55364" lon="1.12489">
        <ele>383</ele>
        <time>2022-07-04T11:13:46+02:00</time>
      </trkpt>
      <trkpt lat="45.55341" lon="1.12495">
        <ele>386</ele>
        <time>2022-07-04T11:14:08+02:00</time>
      </trkpt>
      <trkpt lat="45.55319" lon="1.12497">
        <ele>390</ele>
        <time>2022-07-04T11:14:33+02:00</time>
      </trkpt>
      <trkpt lat="45.55297" lon="1.12508">
        <ele>396</ele>
        <time>2022-07-04T11:15:00+02:00</time>
      </trkpt>
      <trkpt lat="45.55275" lon="1.12518">
        <ele>394</ele>
        <time>2022-07-04T11:15:29+02:00</time>
      </trkpt>
      <trkpt lat="45.55253" lon="1.12524">
        <ele>383</ele>
        <time>2022-07-04T11:15:55+02:00</time>
      </trkpt>
      <trkpt lat="45.5523" lon="1.12531">
        <ele>382</ele>
        <time>2022-07-04T11:16:23+02:00</time>
      </trkpt>
      <trkpt lat="45.55208" lon="1.12535">
        <ele>384</ele>
        <time>2022-07-04T11:16:45+02:00</time>
      </trkpt>
      <trkpt lat="45.55184" lon="1.1254">
        <ele>378</ele>
        <time>2022-07-04T11:17:17+02:00</time>
      </trkpt>
      <trkpt lat="45.55162" lon="1.12549">
        <ele>374</ele>
        <time>2022-07-04T11:17:41+02:00</time>
      </trkpt>
      <trkpt lat="45.55139" lon="1.12551">
        <ele>380</ele>
        <time>2022-07-04T11:18:15+02:00</time>
      </trkpt>
      <trkpt lat="45.55115" lon="1.12554">
        <ele>380</ele>
        <time>2022-07-04T11:18:39+02:00</time>
      </trkpt>
      <trkpt lat="45.55092" lon="1.12547">
        <ele>379</ele>
        <time>2022-07-04T11:18:59+02:00</time>
      </trkpt>
      <trkpt lat="45.55071" lon="1.12537">
        <ele>381</ele>
        <time>2022-07-04T11:19:22+02:00</time>
      </trkpt>
      <trkpt lat="45.55048" lon="1.12532">
        <ele>384</ele>
        <time>2022-07-04T11:19:55+02:00</time>
      </trkpt>
      <trkpt lat="45.55026" lon="1.12526">
        <ele>377</ele>
        <time>2022-07-04T11:20:20+02:00</time>
      </trkpt>
      <trkpt lat="45.55003" lon="1.12523">
        <ele>375</ele>
        <time>2022-07-04T11:20:46+02:00</time>
      </trkpt>
      <trkpt lat="45.54982" lon="1.12537">
        <ele>382</ele>
        <time>2022-07-04T11:21:11+02:00</time>
      </trkpt>
      <trkpt lat="45.54978" lon="1.12569">
        <ele>381</ele>
        <time>2022-07-04T11:21:38+02:00</time>
      </trkpt>
      <trkpt lat="45.54974" lon="1.126">
        <ele>370</ele>
        <time>2022-07-04T11:22:00+02:00</time>
      </trkpt>
      <trkpt lat="45.54963" lon="1.12629">
        <ele>371</ele>
        <time>2022-07-04T11:22:22+02:00</time>
      </trkpt>
      <trkpt lat="45.54948" lon="1.12655">
        <ele>365</ele>
        <time>2022-07-04T11:22:44+02:00</time>
      </trkpt>
      <trkpt lat="45.54934" lon="1.12682">
        <ele>362</ele>
        <time>2022-07-04T11:23:12+02:00</time>
      </trkpt>
      <trkpt lat="45.54914" lon="1.12701">
        <ele>368</ele>
        <time>2022-07-04T11:23:35+02:00</time>
      </trkpt>
      <trkpt lat="45.54897" lon="1.12722">
        <ele>364</ele>
        <time>2022-07-04T11:23:59+02:00</time>
      </trkpt>
      <trkpt lat="45.54882" lon="1.12747">
        <ele>373</ele>
        <time>2022-07-04T11:24:26+02:00</time>
      </trkpt>
      <trkpt lat="45.54859" lon="1.12751">
        <ele>374</ele>
        <time>2022-07-04T11:25:09+02:00</time>
      </trkpt>
      <trkpt lat="45.54839" lon="1.12766">
        <ele>373</ele>
        <time>2022-07-04T11:25:40+02:00</time>
      </trkpt>
      <trkpt lat="45.54818" lon="1.12778">
        <ele>379</ele>
        <time>2022-07-04T11:26:10+02:00</time>
      </trkpt>
      <trkpt lat="45.54812" lon="1.1281">
        <ele>384</ele>
        <time>2022-07-04T11:27:26+02:00</time>
      </trkpt>
      <trkpt lat="45.54842" lon="1.12857">
        <ele>379</ele>
        <time>2022-07-04T11:28:44+02:00</time>
      </trkpt>
      <trkpt lat="45.54855" lon="1.12883">
        <ele>388</ele>
        <time>2022-07-04T11:29:20+02:00</time>
      </trkpt>
      <trkpt lat="45.54863" lon="1.12915">
        <ele>387</ele>
        <time>2022-07-04T11:29:58+02:00</time>
      </trkpt>
      <trkpt lat="45.54872" lon="1.12945">
        <ele>390</ele>
        <time>2022-07-04T11:30:16+02:00</time>
      </trkpt>
      <trkpt lat="45.54885" lon="1.12972">
        <ele>388</ele>
        <time>2022-07-04T11:30:39+02:00</time>
      </trkpt>
      <trkpt lat="45.54892" lon="1.13004">
        <ele>394</ele>
        <time>2022-07-04T11:31:09+02:00</time>
      </trkpt>
      <trkpt lat="45.549" lon="1.13035">
        <ele>394</ele>
        <time>2022-07-04T11:31:35+02:00</time>
      </trkpt>
      <trkpt lat="45.54917" lon="1.13055">
        <ele>396</ele>
        <time>2022-07-04T11:32:08+02:00</time>
      </trkpt>
      <trkpt lat="45.5494" lon="1.13056">
        <ele>398</ele>
        <time>2022-07-04T11:32:39+02:00</time>
      </trkpt>
      <trkpt lat="45.54963" lon="1.13049">
        <ele>394</ele>
        <time>2022-07-04T11:33:09+02:00</time>
      </trkpt>
      <trkpt lat="45.54977" lon="1.13074">
        <ele>404</ele>
        <time>2022-07-04T11:35:00+02:00</time>
      </trkpt>
      <trkpt lat="45.54953" lon="1.13063">
        <ele>399</ele>
        <time>2022-07-04T11:44:25+02:00</time>
      </trkpt>
      <trkpt lat="45.54926" lon="1.13065">
        <ele>397</ele>
        <time>2022-07-04T11:44:31+02:00</time>
      </trkpt>
      <trkpt lat="45.54906" lon="1.13051">
        <ele>394</ele>
        <time>2022-07-04T11:44:40+02:00</time>
      </trkpt>
      <trkpt lat="45.54897" lon="1.13018">
        <ele>399</ele>
        <time>2022-07-04T11:45:10+02:00</time>
      </trkpt>
      <trkpt lat="45.54882" lon="1.12994">
        <ele>405</ele>
        <time>2022-07-04T11:45:20+02:00</time>
      </trkpt>
      <trkpt lat="45.54873" lon="1.13029">
        <ele>399</ele>
        <time>2022-07-04T11:45:30+02:00</time>
      </trkpt>
    </trkseg>
  </trk>
</gpx>